Time;durP1;ratioP1;P1;durP2;ratioP2;P2;SDS_P1;SDS_P2;PMS_P1;PMS_P2;Temp;Humidity;BMP_temperature;BMP_pressure;BME280_temperature;BME280_humidity;BME280_pressure;Samples;Min_cycle;Max_cycle;Signal;HPM_P1;HPM_P2
2022/11/25 00:00:01;;;;;;;2.03;1.92;;;3.10;99.90;;;;;;5072086;28;20032;-76
2022/11/25 00:02:26;;;;;;;4.78;2.03;;;3.10;99.90;;;;;;5071222;28;20032;-75
2022/11/25 00:04:52;;;;;;;1.90;1.45;;;;;;;;;;5071434;28;20480;-75
2022/11/25 00:07:18;;;;;;;1.95;1.77;;;;;;;;;;5089691;28;20476;-75
2022/11/25 00:09:44;;;;;;;2.38;1.70;;;3.00;99.90;;;;;;5089830;28;20024;-76
2022/11/25 00:12:09;;;;;;;4.78;2.22;;;3.10;99.90;;;;;;5071694;28;20380;-75
2022/11/25 00:14:35;;;;;;;1.55;1.45;;;4.10;99.90;;;;;;5071191;28;20039;-76
2022/11/25 00:17:01;;;;;;;1.95;1.77;;;3.00;99.90;;;;;;5090078;28;20024;-77
2022/11/25 00:19:26;;;;;;;2.60;1.92;;;3.10;99.90;;;;;;5071572;28;20024;-76
2022/11/25 00:21:52;;;;;;;4.00;2.53;;;3.80;99.90;;;;;;5071375;28;20415;-77
2022/11/25 00:24:18;;;;;;;5.00;2.05;;;4.50;99.90;;;;;;5071663;28;20028;-76
2022/11/25 00:26:43;;;;;;;3.10;1.80;;;3.80;99.90;;;;;;5090548;28;20389;-75
2022/11/25 00:29:10;;;;;;;2.47;2.05;;;3.50;99.90;;;;;;5071193;28;20028;-76
2022/11/25 00:31:38;;;;;;;2.55;1.95;;;3.20;99.90;;;;;;5090328;28;20070;-76
2022/11/25 00:34:04;;;;;;;4.13;2.55;;;3.50;99.90;;;;;;5071468;28;20143;-76
2022/11/25 00:36:35;;;;;;;6.70;2.17;;;3.30;99.90;;;;;;5089937;28;20032;-75
2022/11/25 00:39:09;;;;;;;3.15;2.67;;;3.30;99.90;;;;;;5071933;28;20028;-76
2022/11/25 00:44:34;;;;;;;4.45;2.47;;;3.50;99.90;;;;;;5089912;28;20039;-75
2022/11/25 00:47:08;;;;;;;4.93;2.88;;;3.20;99.90;;;;;;5069418;28;20028;-76
2022/11/25 00:49:34;;;;;;;7.80;2.90;;;3.30;99.90;;;;;;5050597;28;20025;-76
2022/11/25 00:52:00;;;;;;;5.57;2.80;;;3.30;99.90;;;;;;5069196;28;20048;-76
2022/11/25 00:54:25;;;;;;;9.10;3.58;;;3.30;99.90;;;;;;5069091;28;20037;-77
2022/11/25 00:56:51;;;;;;;11.80;4.65;;;3.80;99.90;;;;;;5070155;28;20028;-76
2022/11/25 00:59:17;;;;;;;8.38;3.10;;;3.50;99.90;;;;;;5069583;28;20426;-76
2022/11/25 01:01:44;;;;;;;2.03;1.70;;;;;;;;;;5069827;28;20143;-76
2022/11/25 01:04:10;;;;;;;7.25;3.08;;;3.30;99.90;;;;;;5050422;28;20119;-76
2022/11/25 01:06:36;;;;;;;4.13;2.33;;;3.40;99.90;;;;;;5052268;28;20044;-76
2022/11/25 01:09:07;;;;;;;4.80;2.22;;;3.30;99.90;;;;;;5052824;28;20538;-75
2022/11/25 01:11:33;;;;;;;6.47;4.40;;;3.30;99.90;;;;;;5072139;28;20032;-75
2022/11/25 01:13:59;;;;;;;3.28;2.35;;;5.20;99.90;;;;;;5053512;28;20440;-76
2022/11/25 01:16:25;;;;;;;6.07;3.53;;;3.30;99.90;;;;;;5053121;28;20112;-75
2022/11/25 01:18:51;;;;;;;2.42;2.15;;;4.90;99.90;;;;;;5054216;28;20029;-76
2022/11/25 01:21:22;;;;;;;5.07;2.70;;;3.40;99.90;;;;;;5053471;28;20028;-76
2022/11/25 01:23:49;;;;;;;6.50;3.15;;;3.30;99.90;;;;;;5054051;28;20052;-75
2022/11/25 01:26:20;;;;;;;5.13;3.90;;;3.30;99.90;;;;;;5053747;28;20497;-75
2022/11/25 01:28:46;;;;;;;7.18;4.60;;;3.40;99.90;;;;;;5054222;28;20029;-75
2022/11/25 01:31:17;;;;;;;2.30;2.05;;;4.00;99.90;;;;;;5054036;28;20025;-75
2022/11/25 01:33:44;;;;;;;6.05;3.25;;;3.30;99.90;;;;;;5053858;28;20043;-76
2022/11/25 01:36:16;;;;;;;6.97;3.10;;;3.80;99.90;;;;;;5071873;28;20020;-75
2022/11/25 01:38:43;;;;;;;5.22;3.13;;;3.20;99.90;;;;;;5053938;28;20028;-77
2022/11/25 01:41:12;;;;;;;7.82;2.65;;;3.80;99.90;;;;;;5071460;28;20016;-75
2022/11/25 01:43:38;;;;;;;5.85;3.97;;;3.20;99.90;;;;;;5071268;28;20026;-76
2022/11/25 01:46:19;;;;;;;3.08;1.77;;;3.30;99.90;;;;;;5071115;28;20028;-76
2022/11/25 01:48:55;;;;;;;3.13;2.13;;;3.50;99.90;;;;;;5053092;28;20550;-76
2022/11/25 01:51:38;;;;;;;2.70;2.47;;;3.20;99.90;;;;;;5070756;28;20405;-75
2022/11/25 01:54:06;;;;;;;9.50;3.42;;;3.20;99.90;;;;;;5071329;28;20067;-76
2022/11/25 01:56:43;;;;;;;3.55;1.83;;;3.10;99.90;;;;;;5053115;28;20512;-76
2022/11/25 01:59:09;;;;;;;2.92;1.83;;;3.40;99.90;;;;;;5079926;28;20051;-76
2022/11/25 02:01:34;;;;;;;1.52;1.42;;;3.70;99.90;;;;;;5073281;28;20498;-76
2022/11/25 02:04:00;;;;;;;3.20;1.90;;;3.20;99.90;;;;;;5091043;28;20028;-75
2022/11/25 02:06:30;;;;;;;2.38;1.83;;;3.80;99.90;;;;;;5073550;28;20500;-76
2022/11/25 02:09:01;;;;;;;;;;;3.70;99.90;;;;;;5073378;28;20035;-77
2022/11/25 02:11:29;;;;;;;4.85;1.80;;;3.20;99.90;;;;;;5090780;28;20006;-77
2022/11/25 02:13:55;;;;;;;3.60;2.53;;;;;;;;;;5072868;28;20027;-76
2022/11/25 02:16:21;;;;;;;10.25;3.33;;;3.30;99.90;;;;;;5072428;28;20028;-76
2022/11/25 02:18:48;;;;;;;4.63;3.42;;;3.30;99.90;;;;;;5072643;28;20024;-76
2022/11/25 02:21:20;;;;;;;4.78;2.67;;;4.10;99.90;;;;;;5072445;28;20092;-76
2022/11/25 02:23:59;;;;;;;2.08;1.92;;;3.30;99.90;;;;;;5090633;28;20023;-76
2022/11/25 02:26:25;;;;;;;5.82;3.22;;;3.30;99.90;;;;;;5070651;28;20380;-76
2022/11/25 02:28:51;;;;;;;10.05;1.88;;;3.40;99.90;;;;;;5070624;28;20024;-76
2022/11/25 02:31:21;;;;;;;11.40;2.78;;;4.10;99.90;;;;;;5088905;28;20549;-77
2022/11/25 02:33:47;;;;;;;4.85;1.60;;;4.20;99.90;;;;;;5089362;28;20068;-75
2022/11/25 02:36:19;;;;;;;2.90;1.75;;;4.30;99.90;;;;;;5088784;28;20804;-76
2022/11/25 02:38:48;;;;;;;2.35;1.27;;;3.50;99.90;;;;;;5070443;28;20021;-76
2022/11/25 02:41:21;;;;;;;5.57;2.40;;;3.60;99.90;;;;;;5071126;28;20503;-75
2022/11/25 02:43:47;;;;;;;2.63;1.88;;;3.50;99.90;;;;;;5089564;28;20027;-75
2022/11/25 02:46:14;;;;;;;7.97;2.08;;;4.00;99.90;;;;;;5088641;28;20073;-76
2022/11/25 02:48:41;;;;;;;2.05;1.73;;;3.70;99.90;;;;;;5088726;28;20028;-76
2022/11/25 02:51:10;;;;;;;2.72;1.88;;;3.60;99.90;;;;;;5070092;28;20526;-76
2022/11/25 02:53:36;;;;;;;2.47;2.25;;;3.80;99.90;;;;;;5070367;28;20032;-75
2022/11/25 02:56:02;;;;;;;2.17;1.67;;;4.20;99.90;;;;;;5088469;28;20503;-77
2022/11/25 02:58:27;;;;;;;4.03;2.50;;;3.70;99.90;;;;;;5089197;28;20028;-76
2022/11/25 03:00:53;;;;;;;4.07;1.85;;;3.40;99.90;;;;;;5090396;28;20487;-76
2022/11/25 03:03:19;;;;;;;4.28;2.08;;;;;;;;;;5089575;28;20507;-76
2022/11/25 03:05:45;;;;;;;4.65;2.95;;;;;;;;;;5090002;28;20112;-75
2022/11/25 03:08:11;;;;;;;4.65;2.15;;;3.30;99.90;;;;;;5071611;28;20051;-76
2022/11/25 03:10:38;;;;;;;2.92;1.75;;;3.50;99.90;;;;;;5089996;28;20032;-76
2022/11/25 03:13:04;;;;;;;2.13;2.03;;;3.90;99.90;;;;;;5089818;28;20591;-77
2022/11/25 03:15:30;;;;;;;2.13;1.90;;;3.40;99.90;;;;;;5089207;28;20501;-75
2022/11/25 03:17:56;;;;;;;2.75;2.03;;;3.70;99.90;;;;;;5089793;28;20039;-76
2022/11/25 03:20:21;;;;;;;5.10;2.78;;;3.20;99.90;;;;;;5071543;28;20115;-76
2022/11/25 03:22:47;;;;;;;2.58;1.52;;;3.20;99.90;;;;;;5072000;28;20024;-76
2022/11/25 03:25:13;;;;;;;3.80;1.77;;;4.10;99.90;;;;;;5071706;28;20024;-77
2022/11/25 03:27:39;;;;;;;5.07;2.40;;;4.40;99.90;;;;;;5071627;28;20496;-76
2022/11/25 03:30:08;;;;;;;6.55;2.97;;;3.20;99.90;;;;;;5089600;28;20103;-76
2022/11/25 03:32:34;;;;;;;1.97;1.73;;;3.20;99.90;;;;;;5089607;28;20024;-75
2022/11/25 03:34:59;;;;;;;4.45;2.70;;;3.90;99.90;;;;;;5089590;28;20488;-75
2022/11/25 03:37:25;;;;;;;2.72;1.95;;;3.20;99.90;;;;;;5071781;28;20117;-75
2022/11/25 03:39:51;;;;;;;5.75;2.67;;;3.70;99.90;;;;;;5090323;28;20038;-76
2022/11/25 03:42:16;;;;;;;2.45;2.20;;;3.40;99.90;;;;;;5089953;28;20469;-76
2022/11/25 03:44:42;;;;;;;4.97;1.80;;;3.10;99.90;;;;;;5090253;28;20043;-76
2022/11/25 03:47:08;;;;;;;3.35;1.80;;;3.20;99.90;;;;;;5071999;28;20298;-76
2022/11/25 03:49:33;;;;;;;2.95;1.30;;;3.50;99.90;;;;;;5071650;28;20254;-76
2022/11/25 03:51:59;;;;;;;1.50;1.38;;;3.40;99.90;;;;;;5089667;28;20036;-74
2022/11/25 03:54:25;;;;;;;1.27;1.17;;;3.30;99.90;;;;;;5089770;28;20036;-75
2022/11/25 03:56:51;;;;;;;3.70;1.08;;;3.10;99.90;;;;;;5090028;28;20523;-77
2022/11/25 03:59:16;;;;;;;1.40;1.13;;;3.10;99.90;;;;;;5071335;28;20028;-76
2022/11/25 04:01:42;;;;;;;5.10;2.33;;;3.90;99.90;;;;;;5071828;28;20126;-76
2022/11/25 04:04:08;;;;;;;1.63;1.42;;;3.10;99.90;;;;;;5089958;28;20028;-76
2022/11/25 04:06:33;;;;;;;2.38;2.17;;;3.30;99.90;;;;;;5071869;28;20028;-77
2022/11/25 04:08:59;;;;;;;2.13;1.52;;;2.90;99.90;;;;;;5090148;28;20107;-76
2022/11/25 04:12:45;;;;;;;1.17;1.08;;;2.90;99.90;;;;;;5090205;28;20068;-76
2022/11/25 04:14:13;;;;;;;2.72;1.45;;;3.80;99.90;;;;;;5089431;28;20385;-76
2022/11/25 04:16:39;;;;;;;2.95;1.63;;;3.60;99.90;;;;;;5071755;28;20080;-76
2022/11/25 04:19:04;;;;;;;9.52;2.40;;;3.30;99.90;;;;;;5089404;28;20027;-76
2022/11/25 04:21:30;;;;;;;1.15;1.02;;;3.00;99.90;;;;;;5090010;28;20030;-76
2022/11/25 04:23:57;;;;;;;2.50;0.93;;;3.00;99.90;;;;;;5089552;28;20047;-76
2022/11/25 04:26:23;;;;;;;1.60;1.23;;;3.00;99.90;;;;;;5089984;28;20105;-75
2022/11/25 04:28:49;;;;;;;7.22;2.35;;;3.20;99.90;;;;;;5091616;28;20382;-76
2022/11/25 04:31:14;;;;;;;3.17;1.67;;;3.10;99.90;;;;;;5074896;28;20111;-76
2022/11/25 04:33:40;;;;;;;4.50;1.60;;;5.10;99.90;;;;;;5074809;28;20123;-76
2022/11/25 04:36:06;;;;;;;1.67;1.58;;;3.30;99.90;;;;;;5092912;28;20507;-76
2022/11/25 04:38:31;;;;;;;1.40;1.30;;;3.10;99.90;;;;;;5093178;28;20069;-76
2022/11/25 04:40:57;;;;;;;2.85;1.45;;;3.10;99.90;;;;;;5075000;28;20024;-76
2022/11/25 04:43:23;;;;;;;1.60;1.17;;;3.30;99.90;;;;;;5074431;28;20472;-76
2022/11/25 04:45:49;;;;;;;2.15;1.58;;;4.00;99.90;;;;;;5092550;28;20023;-76
2022/11/25 04:48:15;;;;;;;13.93;2.67;;;4.60;99.90;;;;;;5092929;28;20031;-76
2022/11/25 04:50:41;;;;;;;4.75;1.55;;;3.70;99.90;;;;;;5074437;28;20077;-76
2022/11/25 04:53:06;;;;;;;1.75;1.20;;;3.60;99.90;;;;;;5092606;28;20036;-77
2022/11/25 04:55:32;;;;;;;2.13;1.58;;;3.20;99.90;;;;;;5092749;28;20039;-77
2022/11/25 04:57:58;;;;;;;2.25;1.42;;;3.10;99.90;;;;;;5074112;28;20145;-76
2022/11/25 05:00:23;;;;;;;2.53;1.23;;;3.10;99.90;;;;;;5073915;28;20480;-75
2022/11/25 05:02:49;;;;;;;1.35;1.25;;;3.10;99.90;;;;;;5092754;28;20020;-75
2022/11/25 05:05:15;;;;;;;4.95;1.63;;;3.90;99.90;;;;;;5092330;28;20039;-77
2022/11/25 05:07:40;;;;;;;3.08;1.10;;;3.10;99.90;;;;;;5092691;28;20052;-76
2022/11/25 05:10:07;;;;;;;2.60;1.33;;;3.60;99.90;;;;;;5092292;28;20477;-76
2022/11/25 05:12:33;;;;;;;5.95;1.77;;;3.10;99.90;;;;;;5073770;28;20031;-77
2022/11/25 05:14:59;;;;;;;3.28;1.70;;;3.30;99.90;;;;;;5074101;28;20499;-76
2022/11/25 05:17:28;;;;;;;8.90;1.58;;;3.90;99.90;;;;;;5091960;28;20052;-76
2022/11/25 05:19:54;;;;;;;2.75;1.60;;;4.20;99.90;;;;;;5073497;28;20024;-76
2022/11/25 05:22:26;;;;;;;3.00;1.63;;;3.70;99.90;;;;;;5073896;28;20412;-76
2022/11/25 05:24:52;;;;;;;1.63;1.52;;;3.30;99.90;;;;;;5073704;28;20506;-75
2022/11/25 05:27:19;;;;;;;8.13;1.30;;;3.40;99.90;;;;;;5091926;28;20075;-75
2022/11/25 05:29:45;;;;;;;4.07;1.65;;;;;;;;;;5092060;28;20024;-76
2022/11/25 05:32:11;;;;;;;1.23;1.13;;;3.20;99.90;;;;;;5091897;28;20453;-76
2022/11/25 05:34:37;;;;;;;6.13;1.63;;;3.20;99.90;;;;;;5072872;28;20114;-76
2022/11/25 05:37:03;;;;;;;4.40;1.35;;;3.30;99.90;;;;;;5073232;28;20174;-76
2022/11/25 05:39:29;;;;;;;2.30;1.85;;;3.70;99.90;;;;;;5072774;28;20175;-76
2022/11/25 05:41:55;;;;;;;1.83;1.63;;;3.30;99.90;;;;;;5091575;28;20048;-76
2022/11/25 05:44:21;;;;;;;1.52;1.20;;;3.40;99.90;;;;;;5091265;28;20020;-76
2022/11/25 05:46:47;;;;;;;1.30;1.20;;;3.40;99.90;;;;;;5091452;28;20032;-76
2022/11/25 05:49:14;;;;;;;1.60;1.42;;;3.50;99.90;;;;;;5073051;28;20024;-76
2022/11/25 05:51:40;;;;;;;2.17;1.52;;;3.50;99.90;;;;;;5091008;28;20055;-76
2022/11/25 05:54:05;;;;;;;2.95;0.75;;;3.50;99.90;;;;;;5072757;28;20121;-76
2022/11/25 05:56:31;;;;;;;5.85;2.17;;;5.00;99.90;;;;;;5072737;28;20028;-75
2022/11/25 05:59:00;;;;;;;1.65;1.50;;;5.00;99.90;;;;;;5091078;28;20541;-76
2022/11/25 06:01:26;;;;;;;1.00;0.90;;;5.00;99.90;;;;;;5072741;28;20123;-76
2022/11/25 06:03:51;;;;;;;3.13;1.42;;;4.00;99.90;;;;;;5090895;28;20103;-76
2022/11/25 06:06:18;;;;;;;1.88;1.55;;;;;;;;;;5072831;28;20481;-76
2022/11/25 06:08:44;;;;;;;1.48;1.38;;;3.50;99.90;;;;;;5090808;28;20028;-77
2022/11/25 06:11:12;;;;;;;13.38;1.77;;;3.50;99.90;;;;;;5072795;28;20045;-76
2022/11/25 06:13:39;;;;;;;3.15;1.45;;;4.20;99.90;;;;;;5072310;28;20051;-76
2022/11/25 06:16:12;;;;;;;1.35;1.25;;;4.60;99.90;;;;;;5090696;28;20095;-76
2022/11/25 06:18:39;;;;;;;2.80;2.38;;;5.10;99.90;;;;;;5090468;28;20499;-76
2022/11/25 06:21:06;;;;;;;1.75;1.40;;;3.80;99.90;;;;;;5072201;28;20020;-76
2022/11/25 06:23:32;;;;;;;4.03;1.27;;;3.60;99.90;;;;;;5090889;28;20027;-75
2022/11/25 06:26:11;;;;;;;2.33;1.55;;;3.80;99.90;;;;;;5090519;28;20050;-76
2022/11/25 06:28:37;;;;;;;1.20;1.10;;;4.40;99.90;;;;;;5090685;28;20039;-75
2022/11/25 06:31:23;;;;;;;2.50;1.70;;;3.60;99.90;;;;;;5090455;28;20032;-76
2022/11/25 06:33:50;;;;;;;0.90;0.82;;;3.60;99.90;;;;;;5071913;28;20279;-76
2022/11/25 06:36:18;;;;;;;5.18;1.23;;;3.60;99.90;;;;;;5090781;28;20016;-76
2022/11/25 06:38:45;;;;;;;1.45;1.20;;;4.00;99.90;;;;;;5091328;28;20028;-76
2022/11/25 06:41:11;;;;;;;2.58;1.30;;;3.80;99.90;;;;;;5072119;28;20020;-75
2022/11/25 06:43:37;;;;;;;1.17;1.08;;;3.80;99.90;;;;;;5075944;28;20030;-75
2022/11/25 06:46:23;;;;;;;3.30;1.13;;;3.80;99.90;;;;;;5082838;28;20012;-76
2022/11/25 06:48:48;;;;;;;3.90;1.50;;;3.80;99.90;;;;;;5082774;28;20032;-77
2022/11/25 06:51:15;;;;;;;0.90;0.90;;;4.30;99.90;;;;;;5076709;28;20455;-77
2022/11/25 06:53:41;;;;;;;2.05;0.95;;;4.40;99.90;;;;;;5090277;28;20054;-75
2022/11/25 06:56:15;;;;;;;1.65;1.55;;;4.30;99.90;;;;;;5090240;28;20113;-76
2022/11/25 06:58:42;;;;;;;2.58;1.55;;;3.90;99.90;;;;;;5090942;28;20054;-77
2022/11/25 07:01:18;;;;;;;1.60;1.50;;;4.00;99.90;;;;;;5072634;28;20361;-77
2022/11/25 07:03:45;;;;;;;2.33;2.05;;;4.10;99.90;;;;;;5071891;28;20262;-75
2022/11/25 07:06:12;;;;;;;4.85;2.25;;;4.10;99.90;;;;;;5073730;28;20518;-76
2022/11/25 07:08:38;;;;;;;7.38;1.98;;;4.40;99.90;;;;;;5082679;28;20481;-76
2022/11/25 07:11:19;;;;;;;3.17;2.85;;;4.80;99.90;;;;;;5056337;28;20123;-75
2022/11/25 07:13:45;;;;;;;4.03;1.50;;;4.20;99.90;;;;;;5083645;28;20145;-79
2022/11/25 07:16:12;;;;;;;4.72;2.10;;;4.10;99.90;;;;;;5066246;28;20024;-76
2022/11/25 07:18:39;;;;;;;4.68;2.22;;;4.20;99.90;;;;;;5083278;28;20455;-82
2022/11/25 07:21:07;;;;;;;1.80;1.67;;;4.30;99.90;;;;;;5065254;28;20032;-78
2022/11/25 07:23:33;;;;;;;1.98;1.77;;;4.40;99.90;;;;;;5065439;28;20030;-76
2022/11/25 07:26:03;;;;;;;2.03;1.83;;;5.50;99.90;;;;;;5067739;28;20415;-80
2022/11/25 07:28:29;;;;;;;3.10;1.20;;;4.40;99.90;;;;;;5067163;28;20032;-80
2022/11/25 07:30:55;;;;;;;2.78;1.67;;;5.70;99.90;;;;;;5066795;28;20032;-76
2022/11/25 07:33:20;;;;;;;3.70;1.75;;;5.50;99.90;;;;;;5067003;28;20446;-77
2022/11/25 07:35:46;;;;;;;2.00;1.45;;;;;;;;;;5085572;28;20028;-79
2022/11/25 07:38:12;;;;;;;2.28;1.70;;;4.40;99.90;;;;;;5066245;28;20043;-77
2022/11/25 07:40:37;;;;;;;2.95;1.90;;;4.40;99.90;;;;;;5066614;28;20118;-77
2022/11/25 07:43:03;;;;;;;2.53;1.63;;;5.40;99.90;;;;;;5085599;28;20028;-78
2022/11/25 07:45:29;;;;;;;1.73;1.60;;;5.90;99.90;;;;;;5066594;28;20024;-81
2022/11/25 07:47:54;;;;;;;9.77;3.15;;;6.00;99.90;;;;;;5084651;28;20032;-83
2022/11/25 07:50:20;;;;;;;3.17;2.72;;;4.80;99.90;;;;;;5067190;28;20012;-76
2022/11/25 07:52:45;;;;;;;4.88;2.58;;;4.80;99.90;;;;;;5084561;28;20058;-80
2022/11/25 07:55:11;;;;;;;5.63;2.20;;;5.20;99.90;;;;;;5085041;28;20024;-80
2022/11/25 07:57:37;;;;;;;6.60;2.10;;;5.20;99.90;;;;;;5067072;28;20008;-81
2022/11/25 08:00:03;;;;;;;6.72;2.45;;;6.20;99.90;;;;;;5084341;28;20427;-76
2022/11/25 08:02:29;;;;;;;2.38;1.77;;;5.10;99.90;;;;;;5085928;28;20011;-78
2022/11/25 08:04:55;;;;;;;4.18;2.88;;;5.20;99.90;;;;;;5088851;28;20027;-76
2022/11/25 08:07:21;;;;;;;3.47;3.15;;;5.30;99.90;;;;;;5088476;28;20081;-76
2022/11/25 08:09:47;;;;;;;3.35;2.25;;;5.30;99.90;;;;;;5088431;28;20021;-76
2022/11/25 08:12:12;;;;;;;6.70;1.50;;;5.30;99.90;;;;;;5088530;28;20024;-77
2022/11/25 08:14:38;;;;;;;3.05;2.75;;;5.40;99.90;;;;;;5070098;28;20040;-78
2022/11/25 08:17:04;;;;;;;2.28;2.08;;;5.30;99.90;;;;;;5088559;28;20020;-76
2022/11/25 08:19:31;;;;;;;3.25;2.58;;;5.40;99.90;;;;;;5070048;28;20144;-79
2022/11/25 08:21:56;;;;;;;3.47;2.20;;;5.40;99.90;;;;;;5088689;28;20035;-78
2022/11/25 08:24:22;;;;;;;6.18;2.33;;;5.40;99.90;;;;;;5088131;28;20032;-80
2022/11/25 08:26:48;;;;;;;5.85;2.75;;;5.50;99.90;;;;;;5070090;28;20404;-76
2022/11/25 08:29:15;;;;;;;6.85;2.50;;;5.50;99.90;;;;;;5088544;28;20020;-77
2022/11/25 08:31:41;;;;;;;5.50;3.15;;;5.60;99.90;;;;;;5087550;28;20017;-76
2022/11/25 08:34:08;;;;;;;3.85;2.00;;;5.60;99.90;;;;;;5069067;28;20074;-76
2022/11/25 08:36:35;;;;;;;4.85;2.92;;;5.50;99.90;;;;;;5069710;28;20020;-76
2022/11/25 08:39:04;;;;;;;2.78;1.40;;;5.60;99.90;;;;;;5087851;28;20085;-77
2022/11/25 08:41:33;;;;;;;3.05;1.80;;;5.80;99.90;;;;;;5087667;28;20028;-77
2022/11/25 08:44:00;;;;;;;2.28;2.08;;;5.70;99.90;;;;;;5087716;28;20047;-79
2022/11/25 08:46:32;;;;;;;2.00;1.80;;;5.70;99.90;;;;;;5069975;28;20059;-78
2022/11/25 08:48:57;;;;;;;3.17;1.55;;;5.80;99.90;;;;;;5088279;28;20019;-76
2022/11/25 08:51:26;;;;;;;2.40;1.95;;;5.80;99.90;;;;;;5070037;28;20452;-84
2022/11/25 08:53:52;;;;;;;3.47;2.30;;;5.90;99.90;;;;;;5070190;28;20562;-81
2022/11/25 08:56:20;;;;;;;5.00;1.98;;;5.90;99.90;;;;;;5070282;28;20287;-80
2022/11/25 08:58:48;;;;;;;4.45;2.08;;;;;;;;;;5088528;28;20032;-77
2022/11/25 09:01:14;;;;;;;2.92;2.13;;;;;;;;;;5087549;28;20017;-76
2022/11/25 09:03:44;;;;;;;5.07;2.45;;;6.10;99.90;;;;;;5087306;28;20022;-76
2022/11/25 09:06:10;;;;;;;;;;;6.20;99.90;;;;;;5088101;28;20027;-76
2022/11/25 09:08:37;;;;;;;8.18;2.88;;;6.30;99.90;;;;;;5069862;28;19908;-80
2022/11/25 09:11:03;;;;;;;4.70;2.90;;;6.40;99.90;;;;;;5087256;28;20046;-77
2022/11/25 09:13:29;;;;;;;6.97;3.25;;;6.40;99.90;;;;;;5067959;28;20032;-76
2022/11/25 09:15:55;;;;;;;9.27;3.47;;;6.40;99.90;;;;;;5087153;28;20073;-76
2022/11/25 09:18:24;;;;;;;3.05;2.58;;;6.50;99.90;;;;;;5086562;28;20097;-82
2022/11/25 09:20:51;;;;;;;;;;;6.60;99.90;;;;;;5087438;28;20016;-82
2022/11/25 09:23:16;;;;;;;3.08;2.60;;;6.60;99.90;;;;;;5086862;28;20422;-78
2022/11/25 09:25:56;;;;;;;6.35;3.08;;;6.70;99.90;;;;;;5087733;28;20036;-81
2022/11/25 09:28:23;;;;;;;3.65;2.03;;;6.80;99.90;;;;;;5087364;28;20027;-80
2022/11/25 09:30:49;;;;;;;3.63;1.80;;;6.80;99.90;;;;;;5086969;28;20115;-76
2022/11/25 09:33:15;;;;;;;2.60;2.13;;;7.00;99.90;;;;;;5076214;28;20127;-82
2022/11/25 09:35:41;;;;;;;3.72;1.65;;;7.10;99.90;;;;;;5066116;28;20051;-76
2022/11/25 09:38:07;;;;;;;8.60;2.33;;;7.30;99.90;;;;;;5067614;28;20380;-76
2022/11/25 09:40:47;;;;;;;7.53;2.00;;;7.20;99.90;;;;;;5069818;28;20028;-76
2022/11/25 09:46:45;;;;;;;6.85;3.45;;;7.30;99.90;;;;;;5063782;28;20579;-76
2022/11/25 09:49:45;;;;;;;5.05;2.40;;;7.30;99.90;;;;;;5062470;28;20321;-76
2022/11/25 09:52:32;;;;;;;10.80;4.05;;;7.40;99.90;;;;;;5055300;28;20635;-75
2022/11/25 09:55:16;;;;;;;5.43;4.07;;;7.70;99.90;;;;;;5086027;28;20060;-80
2022/11/25 09:57:59;;;;;;;2.83;2.45;;;7.90;99.90;;;;;;5065756;28;20028;-76
2022/11/25 10:00:36;;;;;;;4.75;2.35;;;8.20;99.90;;;;;;5085647;28;20084;-85
2022/11/25 10:03:34;;;;;;;6.72;2.92;;;8.40;99.90;;;;;;5087265;28;20028;-78
2022/11/25 10:06:10;;;;;;;3.33;2.92;;;8.40;99.90;;;;;;5108935;28;20181;-75
2022/11/25 10:08:42;;;;;;;3.78;3.03;;;8.30;99.90;;;;;;5092459;28;20045;-79
2022/11/25 10:11:20;;;;;;;5.57;3.28;;;8.30;99.90;;;;;;5104210;28;20153;-77
2022/11/25 10:14:10;;;;;;;6.28;4.60;;;8.10;99.90;;;;;;5103705;28;20496;-81
2022/11/25 10:17:04;;;;;;;4.07;3.15;;;8.00;99.90;;;;;;5085770;28;20338;-76
2022/11/25 10:19:42;;;;;;;5.10;3.35;;;7.80;99.90;;;;;;5103513;28;20377;-75
2022/11/25 10:22:20;;;;;;;4.40;3.75;;;7.70;99.90;;;;;;5085261;28;20020;-76
2022/11/25 10:24:46;;;;;;;9.82;4.57;;;7.80;99.90;;;;;;5103334;28;20015;-76
2022/11/25 10:27:23;;;;;;;5.05;3.60;;;7.80;99.90;;;;;;5103002;28;20496;-77
2022/11/25 10:30:00;;;;;;;5.15;4.38;;;8.10;99.90;;;;;;5084817;28;20020;-76
2022/11/25 10:32:34;;;;;;;8.80;4.03;;;8.20;99.90;;;;;;5081594;28;20108;-75
2022/11/25 10:35:04;;;;;;;9.00;5.15;;;8.30;99.90;;;;;;5082126;28;20032;-76
2022/11/25 10:37:36;;;;;;;8.27;3.65;;;8.40;99.90;;;;;;5062568;28;20024;-75
2022/11/25 10:40:01;;;;;;;9.35;4.32;;;8.30;99.90;;;;;;5080733;28;20016;-75
2022/11/25 10:42:28;;;;;;;4.70;3.40;;;;;;;;;;5081627;28;20343;-75
2022/11/25 10:44:53;;;;;;;6.82;3.13;;;8.40;99.90;;;;;;5080886;28;20020;-76
2022/11/25 10:47:58;;;;;;;10.27;5.32;;;8.50;99.90;;;;;;5080196;28;20389;-76
2022/11/25 10:51:09;;;;;;;8.88;4.30;;;8.60;99.90;;;;;;4977088;28;20503;-79
2022/11/25 10:53:36;;;;;;;6.35;4.40;;;8.60;99.90;;;;;;4964186;28;20054;-76
2022/11/25 10:56:11;;;;;;;11.43;5.47;;;8.80;99.90;;;;;;5061925;28;20199;-75
2022/11/25 10:58:39;;;;;;;8.43;4.75;;;8.70;99.90;;;;;;5080193;28;20106;-75
2022/11/25 11:01:21;;;;;;;6.43;4.47;;;8.60;99.90;;;;;;5082322;28;20084;-82
2022/11/25 11:03:52;;;;;;;7.28;4.40;;;8.40;99.90;;;;;;5081454;28;20031;-74
2022/11/25 11:06:30;;;;;;;8.68;4.13;;;8.10;99.90;;;;;;5066901;28;20235;-76
2022/11/25 11:08:57;;;;;;;6.85;4.28;;;8.00;99.90;;;;;;5051240;28;20119;-76
2022/11/25 11:11:24;;;;;;;9.23;5.13;;;8.00;99.90;;;;;;5065784;28;20025;-76
2022/11/25 11:13:58;;;;;;;19.50;5.95;;;7.80;99.90;;;;;;5066139;28;20040;-77
2022/11/25 11:16:38;;;;;;;7.05;4.22;;;7.80;99.90;;;;;;5067634;28;20044;-76
2022/11/25 11:19:05;;;;;;;8.80;5.80;;;7.80;99.90;;;;;;5065889;28;20458;-75
2022/11/25 11:21:34;;;;;;;14.27;6.32;;;7.80;99.90;;;;;;5066269;28;20028;-75
2022/11/25 11:24:00;;;;;;;10.68;5.30;;;7.70;99.90;;;;;;5048048;28;20557;-75
2022/11/25 11:26:30;;;;;;;9.68;5.53;;;7.80;99.90;;;;;;5065892;28;20503;-76
2022/11/25 11:29:15;;;;;;;15.85;6.50;;;7.80;99.90;;;;;;5081050;28;20353;-74
2022/11/25 11:31:50;;;;;;;8.73;4.57;;;7.80;99.90;;;;;;5086619;28;20017;-75
2022/11/25 11:34:57;;;;;;;8.40;5.20;;;7.90;99.90;;;;;;5085933;28;20413;-76
2022/11/25 11:37:44;;;;;;;7.25;4.93;;;7.90;99.90;;;;;;5087473;28;20118;-76
2022/11/25 11:40:37;;;;;;;9.60;4.80;;;8.00;99.90;;;;;;5072035;28;20024;-77
2022/11/25 11:43:38;;;;;;;7.97;5.18;;;8.20;99.90;;;;;;5072033;28;20032;-76
2022/11/25 11:46:12;;;;;;;8.82;5.75;;;8.30;99.90;;;;;;5034088;28;20042;-74
2022/11/25 11:48:55;;;;;;;11.13;4.55;;;8.40;99.90;;;;;;5089834;28;20032;-77
2022/11/25 11:52:06;;;;;;;10.70;4.20;;;8.70;99.90;;;;;;5089919;28;20491;-76
2022/11/25 11:54:39;;;;;;;9.85;4.68;;;;;;;;;;5032868;28;20040;-76
2022/11/25 11:57:26;;;;;;;9.48;3.95;;;8.80;99.90;;;;;;5061679;28;20111;-75
2022/11/25 11:59:54;;;;;;;1.20;1.10;;;8.90;99.90;;;;;;5077952;28;20130;-75
2022/11/25 12:02:39;;;;;;;2.50;1.40;;;9.00;99.90;;;;;;5078399;28;20020;-75
2022/11/25 12:05:10;;;;;;;4.72;1.42;;;9.30;99.90;;;;;;5079175;28;20034;-74
2022/11/25 12:07:46;;;;;;;3.83;1.00;;;9.40;99.90;;;;;;5078259;28;20487;-74
2022/11/25 12:10:14;;;;;;;0.70;0.65;;;9.40;99.90;;;;;;5078036;28;20093;-76
2022/11/25 12:12:57;;;;;;;1.17;0.50;;;9.30;99.90;;;;;;5059348;28;20023;-76
2022/11/25 12:15:43;;;;;;;11.15;1.73;;;9.30;99.90;;;;;;5069393;28;20039;-76
2022/11/25 12:18:39;;;;;;;1.02;0.95;;;9.40;99.90;;;;;;5068115;28;20056;-76
2022/11/25 12:21:32;;;;;;;1.67;0.77;;;9.50;99.90;;;;;;5068395;28;20024;-76
2022/11/25 12:24:07;;;;;;;1.65;1.27;;;9.60;99.90;;;;;;5068527;28;20185;-76
2022/11/25 12:26:59;;;;;;;4.97;0.90;;;9.90;99.90;;;;;;5049865;28;20081;-76
2022/11/25 12:29:33;;;;;;;0.80;0.80;;;9.90;99.90;;;;;;5087696;28;20028;-76
2022/11/25 12:32:31;;;;;;;5.00;1.10;;;9.90;99.90;;;;;;5070858;28;20024;-76
2022/11/25 12:35:01;;;;;;;1.45;1.27;;;9.80;99.90;;;;;;5070563;28;20089;-76
2022/11/25 12:37:43;;;;;;;2.20;1.25;;;9.80;99.90;;;;;;5070607;28;20028;-76
2022/11/25 12:40:17;;;;;;;2.92;1.00;;;9.80;99.90;;;;;;5070508;28;20120;-75
2022/11/25 12:42:44;;;;;;;6.85;1.20;;;;;;;;;;5070585;28;20078;-76
2022/11/25 12:45:19;;;;;;;0.70;0.70;;;10.30;99.90;;;;;;5070735;28;20498;-76
2022/11/25 12:47:45;;;;;;;6.18;1.13;;;10.20;99.90;;;;;;5088667;28;20161;-77
2022/11/25 12:50:36;;;;;;;1.77;1.27;;;10.40;99.90;;;;;;5087075;28;20483;-77
2022/11/25 12:53:13;;;;;;;4.38;1.10;;;10.50;99.90;;;;;;5069704;28;20075;-76
2022/11/25 12:55:40;;;;;;;2.78;0.75;;;10.50;99.90;;;;;;5067592;28;20028;-76
2022/11/25 12:58:27;;;;;;;2.25;1.38;;;10.60;99.90;;;;;;5068447;28;20031;-76
2022/11/25 13:01:36;;;;;;;6.60;1.85;;;10.40;99.90;;;;;;5050160;28;20036;-77
2022/11/25 13:04:27;;;;;;;2.33;1.20;;;10.40;99.90;;;;;;4995894;28;20036;-76
2022/11/25 13:07:20;;;;;;;4.20;1.13;;;10.20;99.90;;;;;;5050023;28;20268;-76
2022/11/25 13:10:10;;;;;;;1.02;0.93;;;10.40;99.90;;;;;;5050676;28;20110;-77
2022/11/25 13:12:38;;;;;;;2.42;1.60;;;10.90;99.90;;;;;;5068451;28;20027;-76
2022/11/25 13:15:31;;;;;;;0.90;0.90;;;11.00;99.90;;;;;;5069901;28;20056;-76
2022/11/25 13:18:01;;;;;;;5.72;1.10;;;11.00;99.90;;;;;;5056711;28;20036;-76
2022/11/25 13:20:27;;;;;;;3.25;1.15;;;10.70;99.90;;;;;;5048764;28;20039;-77
2022/11/25 13:23:09;;;;;;;4.43;1.40;;;10.80;99.90;;;;;;5049105;28;20483;-77